• Join FlightAware (Why Join?)
  • Login
  • US Flag 
12:29AM EDT


 

Airport Tracker/Info


-or-


 

Live Flight TrackerFlight Track Log ✈ UAL341 ✈ 28-Apr-2013 ✈ KIAH - KPHX

Flight Track Log - Related Links

Times and Time Zones

All times are in EDT time to prevent confusion due to time zone crossing. See the UAL341 flight status page for this flight to view local times or setup timezone preferences in your user account.

Time Position Orientation Groundspeed Altitude Reporting Facility
EDT Latitude Longitude Course Direction KTS MPH feet Rate Location/Type
10:17AM 29.9572 -95.3417 276° West 171 197 1,000  Level Houston Center
10:18AM 29.9108 -95.3833 218° Southwest 229 264 4,100 2,460 Climbing Houston Center
10:19AM 29.8978 -95.4036 233° Southwest 225 259 4,700 2,460 Climbing Houston Center
10:19AM 29.8692 -95.4558 238° Southwest 282 325 6,600 2,520 Climbing Houston Center
10:20AM 30.0239 -95.6955 276° West  Level FlightAware Approximate
10:20AM 29.8664 -95.4811 263° West 267 307 7,300  Level Houston Center
10:21AM 30.0347 -95.8169 276° West  Level FlightAware Approximate
10:21AM 29.8878 -95.5694 286° West 293 337 10,400  Level Houston Center
10:22AM 30.0449 -95.9384 276° West  Level FlightAware Approximate
10:22AM 29.9164 -95.6681 289° West 315 362 12,400  Level Houston Center
10:23AM 29.9506 -95.7753 290° West 352 405 15,600 2,760 Climbing Houston Center
10:24AM 29.9856 -95.8839 290° West 362 417 18,100 2,820 Climbing Houston Center
10:25AM 30.0258 -96.0125 290° West 358 412 21,500 2,520 Climbing Houston Center
10:26AM 30.0614 -96.1231 290° West 365 420 23,300 1,920 Climbing Houston Center
10:27AM 30.0956 -96.2361 289° West 374 430 25,500 2,100 Climbing Houston Center
10:28AM 30.1161 -96.3533 281° West 374 430 27,700 1,800 Climbing Houston Center
10:29AM 30.1333 -96.4728 279° West 374 430 29,200 1,320 Climbing Houston Center
10:30AM 30.1522 -96.5975 280° West 384 442 30,500 1,440 Climbing Houston Center
10:31AM 30.1717 -96.7214 280° West 388 447 32,200 1,560 Climbing Houston Center
10:32AM 30.1967 -96.8453 283° West 391 450 33,800 840 Climbing Houston Center
10:33AM 30.2256 -96.9681 285° West 389 448 34,000 60 Climbing Houston Center
10:34AM 30.2533 -97.0908 285° West 388 447 34,000  Level Houston Center
10:35AM 30.2800 -97.2144 284° West 390 449 34,000  Level Houston Center
10:36AM 30.3128 -97.3594 285° West 394 453 34,000  Level Houston Center
10:37AM 30.3414 -97.4861 285° West 400 460 34,000  Level Houston Center
10:38AM 30.3681 -97.6097 284° West 394 453 34,000  Level Houston Center
10:39AM 30.3958 -97.7356 284° West 397 457 34,000  Level Houston Center
10:40AM 30.4233 -97.8594 284° West 393 452 34,000  Level Houston Center
10:41AM 30.4503 -97.9836 284° West 392 451 34,000  Level Houston Center
10:42AM 30.4764 -98.1075 284° West 392 451 34,000  Level Houston Center
10:43AM 30.5033 -98.2308 284° West 391 450 34,000  Level Houston Center
10:44AM 30.5306 -98.3556 284° West 393 452 34,000  Level Houston Center
10:45AM 30.5575 -98.4786 284° West 392 451 34,000  Level Houston Center
10:46AM 30.5847 -98.6050 284° West 397 457 34,000  Level Houston Center
10:47AM 30.6103 -98.7306 283° West 397 457 34,000  Level Houston Center
10:48AM 30.6372 -98.8583 284° West 402 463 34,000  Level Houston Center
10:49AM 30.6686 -99.0061 284° West 400 460 34,000  Level Houston Center
10:50AM 30.6953 -99.1336 284° West 403 464 34,000 -60 Level Houston Center
10:51AM 30.7203 -99.2553 283° West 405 466 33,900 -60 Descending Houston Center
10:52AM 30.7467 -99.3817 284° West 405 466 33,900  Level Houston Center
10:53AM 30.7719 -99.5092 283° West 407 468 34,000  Climbing Houston Center
10:54AM 30.7958 -99.6347 283° West 400 460 34,000  Level Houston Center
10:55AM 30.8267 -99.7875 283° West 406 467 34,000  Level Houston Center
10:57AM 30.8536 -99.9144 284° West 407 468 34,000  Level Houston Center
10:58AM 30.8792 -100.0428 283° West 421 484 34,000  Level Houston Center
10:59AM 30.9058 -100.1736 283° West 420 483 34,000  Level Houston Center
11:00AM 30.9303 -100.2986 283° West 407 468 34,000  Level Houston Center
11:01AM 30.9564 -100.4278 283° West 412 474 34,000  Level Houston Center
11:02AM 30.9822 -100.5544 283° West 409 471 34,000  Level Houston Center
11:03AM 31.0106 -100.7111 282° West 413 475 34,000 -60 Level Houston Center
11:04AM 31.0367 -100.8381 284° West 409 471 33,900  Descending Houston Center
11:05AM 31.0611 -100.9669 283° West 408 470 34,000  Climbing Houston Center
11:06AM 31.0850 -101.0989 282° West 414 476 34,000  Level Houston Center
11:07AM 31.1103 -101.2264 283° West 409 471 34,000  Level Houston Center
11:08AM 31.1369 -101.3731 282° West 414 476 34,000 -60 Level Houston Center
11:09AM 31.1611 -101.5044 282° West 415 478 33,900 -60 Descending Houston Center
11:10AM 31.1856 -101.6364 282° West 416 479 33,900 60 Level Houston Center
11:10AM 31.1950 -101.6886 282° West 416 479 34,000 60 Climbing Albuquerque Center
11:11AM 31.2194 -101.8192 282° West 414 476 34,000  Level Albuquerque Center
11:12AM 31.2400 -101.9394 281° West 431 496 34,000  Level Albuquerque Center
11:13AM 31.2681 -102.0994 282° West 423 487 34,000  Level Albuquerque Center
11:14AM 31.2933 -102.2322 283° West 419 482 34,000  Level Albuquerque Center
11:15AM 31.3169 -102.3653 282° West 419 482 34,000  Level Albuquerque Center
11:16AM 31.3403 -102.4986 282° West 419 482 34,000  Level Albuquerque Center
11:17AM 31.3639 -102.6322 282° West 416 479 34,000  Level Albuquerque Center
11:18AM 31.3869 -102.7650 282° West 416 479 34,000 -60 Level Albuquerque Center
11:19AM 31.4097 -102.8975 281° West 416 479 33,900  Descending Albuquerque Center
11:20AM 31.4369 -103.0586 281° West 419 482 34,000  Climbing Albuquerque Center
11:21AM 31.4606 -103.1914 282° West 420 483 34,000  Level Albuquerque Center
11:23AM 31.4842 -103.3256 282° West 420 483 34,000  Level Albuquerque Center
11:24AM 31.5061 -103.4603 281° West 420 483 34,000  Level Albuquerque Center
11:25AM 31.5292 -103.5944 281° West 422 486 34,000 -60 Level Albuquerque Center
11:26AM 31.5511 -103.7286 281° West 421 484 33,900 -60 Descending Albuquerque Center
11:27AM 31.5756 -103.8733 281° West 422 486 33,900  Level Albuquerque Center
11:28AM 31.5981 -104.0078 281° West 423 487 33,900  Level Albuquerque Center
11:29AM 31.6242 -104.1708 281° West 425 489 33,900  Level Albuquerque Center
11:30AM 31.6475 -104.3064 281° West 426 490 34,000 480 Climbing Albuquerque Center
11:31AM 31.6692 -104.4408 281° West 424 488 34,900 960 Climbing Albuquerque Center
11:32AM 31.6914 -104.5764 281° West 424 488 36,000 480 Climbing Albuquerque Center
11:33AM 31.7133 -104.7119 281° West 424 488 35,900 -60 Descending Albuquerque Center
11:34AM 31.7339 -104.8483 280° West 426 490 35,900  Level Albuquerque Center
11:35AM 31.7611 -105.0136 281° West 431 496 36,000  Climbing Albuquerque Center
11:36AM 31.7828 -105.1519 280° West 433 498 36,000  Level Albuquerque Center
11:37AM 31.8044 -105.2914 280° West 436 502 36,000 -60 Level Albuquerque Center
11:38AM 31.8258 -105.4325 280° West 439 505 35,900  Descending Albuquerque Center
11:39AM 31.8469 -105.5714 280° West 434 499 36,000  Climbing Albuquerque Center
11:40AM 31.8672 -105.7100 280° West 432 497 35,900 -60 Descending Albuquerque Center
11:41AM 31.8925 -105.8731 280° West 423 487 35,900  Level Albuquerque Center
11:42AM 31.9119 -106.0050 280° West 429 494 35,900  Level Albuquerque Center
11:43AM 31.9331 -106.1394 281° West 421 484 36,000  Climbing Albuquerque Center
11:44AM 31.9525 -106.2758 280° West 423 487 36,000  Level Albuquerque Center
11:45AM 31.9694 -106.4136 278° West 426 490 36,000 -60 Level Albuquerque Center
11:46AM 31.9889 -106.5786 278° West 423 487 35,900  Descending Albuquerque Center
11:47AM 32.0053 -106.7169 278° West 426 490 36,000  Climbing Albuquerque Center
11:48AM 32.0208 -106.8561 278° West 427 491 36,000  Level Albuquerque Center
11:49AM 32.0372 -106.9958 278° West 429 494 36,000  Level Albuquerque Center
11:50AM 32.0519 -107.1361 277° West 429 494 36,000  Level Albuquerque Center
11:51AM 32.0675 -107.2767 277° West 429 494 36,000  Level Albuquerque Center
11:52AM 32.0819 -107.4178 277° West 431 496 36,000 -60 Level Albuquerque Center
11:53AM 32.0975 -107.5575 278° West 430 495 35,900  Descending Albuquerque Center
11:54AM 32.1150 -107.7253 277° West 428 493 36,000  Climbing Albuquerque Center
11:56AM 32.1294 -107.8639 277° West 427 491 35,900  Descending Albuquerque Center
11:57AM 32.1433 -108.0028 277° West 426 490 36,000  Climbing Albuquerque Center
11:58AM 32.1581 -108.1408 277° West 426 490 36,000  Level Albuquerque Center
11:59AM 32.1736 -108.2944 277° West 424 488 36,100  Climbing Albuquerque Center
12:00PM 32.1864 -108.4172 277° West 425 489 36,000 -120 Descending Albuquerque Center
12:01PM 32.2019 -108.5686 277° West 423 487 35,900 -660 Descending Albuquerque Center
12:02PM 32.2150 -108.7056 276° West 422 486 34,700 -960 Descending Albuquerque Center
12:03PM 32.2289 -108.8444 277° West 426 490 34,000 -360 Descending Albuquerque Center
12:04PM 32.2422 -108.9875 276° West 435 501 34,000  Level Albuquerque Center
12:05PM 32.2581 -109.1542 276° West 430 495 34,000  Level Albuquerque Center
12:06PM 32.2750 -109.2928 278° West 428 493 34,000 -540 Level Albuquerque Center
12:07PM 32.3086 -109.4278 286° West 429 494 32,900 -1,020 Descending Albuquerque Center
12:08PM 32.3406 -109.5625 286° West 429 494 32,000 -480 Descending Albuquerque Center
12:09PM 32.3731 -109.6983 286° West 430 495 32,000  Level Albuquerque Center
12:10PM 32.4064 -109.8336 286° West 429 494 32,000  Level Albuquerque Center
12:11PM 32.4467 -109.9992 286° West 437 503 32,000  Level Albuquerque Center
12:12PM 32.4794 -110.1347 286° West 434 499 32,000 -840 Level Albuquerque Center
12:13PM 32.5125 -110.2708 286° West 433 498 30,300 -2,160 Descending Albuquerque Center
12:14PM 32.5469 -110.4175 286° West 439 505 27,600 -2,760 Descending Albuquerque Center
12:15PM 32.5786 -110.5544 285° West 434 499 24,600 -2,100 Descending Albuquerque Center
12:16PM 32.6308 -110.6700 298° West 407 468 23,300 -1,200 Descending Albuquerque Center
12:17PM 32.6900 -110.7781 303° West 394 453 22,200 -1,140 Descending Albuquerque Center
12:18PM 32.7581 -110.9061 302° West 385 443 21,000 -1,080 Descending Albuquerque Center
12:19PM 32.8161 -111.0133 303° West 384 442 20,000 -1,020 Descending Albuquerque Center
12:20PM 32.8697 -111.1181 301° West 376 433 19,000 -1,260 Descending Albuquerque Center
12:21PM 32.9189 -111.2197 300° West 360 414 17,500 -1,440 Descending Albuquerque Center
12:22PM 32.9644 -111.3192 299° West 344 396 16,100 -1,320 Descending Albuquerque Center
12:23PM 33.0056 -111.4117 298° West 320 368 14,800 -1,500 Descending Albuquerque Center
12:24PM 33.0567 -111.5078 302° West 288 331 13,000 -1,500 Descending Albuquerque Center
12:25PM 33.1003 -111.5922 302° West 296 341 11,700 -1,020 Descending Albuquerque Center
12:27PM 33.1419 -111.6761 301° West 293 337 11,000 -780 Descending Albuquerque Center
12:28PM 33.1831 -111.7586 301° West 289 333 10,200 -660 Descending Albuquerque Center
12:29PM 33.2231 -111.8383 301° West 282 325 9,700 -540 Descending Albuquerque Center
12:30PM 33.2631 -111.9158 302° West 275 316 9,200 -600 Descending Albuquerque Center
12:31PM 33.2981 -111.9856 301° West 251 289 8,500 -960 Descending Albuquerque Center
12:32PM 33.3331 -112.0689 297° West 239 275 7,300 -1,020 Descending Albuquerque Center
12:33PM 33.3433 -112.1425 280° West 226 260 6,500 -1,260 Descending Albuquerque Center
12:34PM 33.3783 -112.1767 321° Northwest 194 223 4,700 -1,620 Descending Albuquerque Center
12:35PM 33.4297 -112.1694 North 188 216 3,200 -1,500 Descending Albuquerque Center